Shubert, Nebraska
Current Conditions -  °F | °C
As of 1:53 AM on Monday 24 Nov 2014 (Local Time) from KFNB Reporting Station
Few Clouds Few Clouds  
Wind Chill: 21°   Ceiling: Unl
Heat Index: 33°   Visibility: 10mi
Dew Point: 22°   Wind: 22mph
Humidity: 64%   Direction: 320°NW
Pressure: 29.55"   Gusts: 31mph
Location:  40.24°N, 95.68°W
Report Text: KFNB 240753Z AUTO 32019G27KT 10SM FEW039 01/M06 A2955 RMK AO2 PK WND 32032/0725 SLP011 T00061056
Loading
Personal Weather Stations






























Interactive Weather Map New forecast layout! Learn more

10-Day Weather Forecast

Advertisements
Track Severe Weather on mobile